createdAt,value
2023-04-10T00:02:11.834Z,99851.00
2023-04-10T00:07:14.389Z,99953.28
2023-04-10T00:12:16.234Z,99905.50
2023-04-10T00:17:17.891Z,99974.72
2023-04-10T00:22:19.472Z,100055.78
2023-04-10T00:27:21.145Z,100039.63
2023-04-10T00:32:23.009Z,99981.97
2023-04-10T00:37:24.793Z,99963.88
2023-04-10T00:42:27.100Z,100044.06
2023-04-10T00:47:29.385Z,100010.09
2023-04-10T00:52:32.712Z,100039.41
2023-04-10T00:57:34.495Z,100017.81
2023-04-10T01:02:36.587Z,100077.97
2023-04-10T01:07:41.166Z,100084.63
2023-04-10T01:13:05.658Z,99861.19
2023-04-10T01:18:22.939Z,99989.59
2023-04-10T01:23:49.243Z,99855.41
2023-04-10T01:29:03.534Z,100079.31
2023-04-10T01:34:09.725Z,99828.47
2023-04-10T01:39:12.261Z,100020.53
2023-04-10T01:44:16.169Z,100014.34
2023-04-10T01:49:18.846Z,100016.53
2023-04-10T01:54:21.300Z,99943.47
2023-04-10T01:59:23.285Z,100030.16
2023-04-10T02:04:26.831Z,100025.50
2023-04-10T02:09:34.548Z,100028.66
2023-04-10T02:14:45.202Z,100031.78
2023-04-10T02:19:49.094Z,100060.28
2023-04-10T02:24:51.307Z,100052.50
2023-04-10T02:29:52.909Z,100051.03
2023-04-10T02:34:54.722Z,100050.19
2023-04-10T02:39:56.412Z,100071.22
2023-04-10T02:44:58.156Z,100074.28
2023-04-10T02:49:59.825Z,100079.06
2023-04-10T02:55:01.751Z,100073.75
2023-04-10T03:00:05.338Z,100036.66
2023-04-10T03:05:08.830Z,100066.19
2023-04-10T03:10:10.597Z,100049.22
2023-04-10T03:15:12.802Z,100038.88
2023-04-10T03:20:15.901Z,100036.56
2023-04-10T03:25:17.586Z,100004.75
2023-04-10T03:30:19.389Z,100035.66
2023-04-10T03:35:21.366Z,100052.75
2023-04-10T03:40:22.990Z,100030.81
2023-04-10T03:45:24.763Z,100057.94
2023-04-10T03:50:26.509Z,100034.09
2023-04-10T03:55:28.236Z,100040.88
2023-04-10T04:00:29.906Z,100023.72
2023-04-10T04:05:32.372Z,99985.03
2023-04-10T04:10:34.632Z,100024.81
2023-04-10T04:15:36.513Z,99981.72
2023-04-10T04:20:38.152Z,100002.41
2023-04-10T04:25:39.942Z,99969.59
2023-04-10T04:30:41.629Z,100035.22
2023-04-10T04:35:43.380Z,100018.69
2023-04-10T04:40:45.093Z,100055.97
2023-04-10T04:45:46.865Z,100059.28
2023-04-10T04:50:48.574Z,100078.00
2023-04-10T04:55:50.339Z,100066.03
2023-04-10T05:00:52.697Z,100081.44
2023-04-10T05:05:55.443Z,100074.00
2023-04-10T05:10:57.147Z,100062.72
2023-04-10T05:15:58.936Z,100067.97
2023-04-10T05:21:00.657Z,100052.97
2023-04-10T05:26:02.324Z,100095.91
2023-04-10T05:31:04.253Z,100128.94
2023-04-10T05:36:06.199Z,100129.47
2023-04-10T05:41:08.044Z,100151.25
2023-04-10T05:46:09.862Z,100129.22
2023-04-10T05:51:11.640Z,100121.72
2023-04-10T05:56:13.324Z,100110.41
2023-04-10T06:01:15.002Z,100094.31
2023-04-10T06:06:17.504Z,100148.38
2023-04-10T06:11:19.113Z,100120.47
2023-04-10T06:16:21.525Z,100105.50
2023-04-10T06:21:23.286Z,100133.31
2023-04-10T06:26:25.751Z,100139.06
2023-04-10T06:31:27.562Z,100220.97
2023-04-10T06:36:29.211Z,100220.22
2023-04-10T06:41:30.831Z,100220.56
2023-04-10T06:46:32.560Z,100208.06
2023-04-10T06:51:34.205Z,100199.16
2023-04-10T06:56:36.345Z,100133.69
2023-04-10T07:01:38.130Z,100158.72
2023-04-10T07:06:39.779Z,100151.22
2023-04-10T07:11:41.508Z,100186.22
2023-04-10T07:16:43.245Z,100214.94
2023-04-10T07:21:44.957Z,100209.34
2023-04-10T07:26:46.703Z,100212.25
2023-04-10T07:31:48.412Z,100171.72
2023-04-10T07:36:50.131Z,100187.25
2023-04-10T07:41:54.557Z,100172.09
2023-04-10T07:46:56.857Z,100176.59
2023-04-10T07:51:58.555Z,100184.44
2023-04-10T07:57:00.420Z,100180.16
2023-04-10T08:02:02.208Z,100196.03
2023-04-10T08:07:03.905Z,100130.56
2023-04-10T08:12:05.789Z,100163.28
2023-04-10T08:17:14.425Z,100095.59
2023-04-10T08:22:16.057Z,100096.81
2023-04-10T08:27:17.771Z,100125.53
2023-04-10T08:32:20.375Z,100091.03
2023-04-10T08:37:22.160Z,100076.97
2023-04-10T08:42:24.047Z,100118.63
2023-04-10T08:47:28.804Z,100071.66
2023-04-10T08:52:34.368Z,100062.03
2023-04-10T08:57:39.052Z,100032.34
2023-04-10T09:02:42.986Z,99955.50
2023-04-10T09:07:44.806Z,100012.03
2023-04-10T09:12:48.090Z,99995.22
2023-04-10T09:18:03.013Z,99972.16
2023-04-10T09:23:23.009Z,99963.69
2023-04-10T09:28:24.691Z,99917.16
2023-04-10T09:33:28.050Z,99837.00
2023-04-10T09:38:30.145Z,99874.81
2023-04-10T09:43:31.889Z,99876.19
2023-04-10T09:48:33.591Z,99846.25
2023-04-10T09:53:48.985Z,99822.66
2023-04-10T09:58:52.417Z,99844.94
2023-04-10T10:04:01.970Z,99780.50
2023-04-10T10:09:05.379Z,99807.50
2023-04-10T10:14:18.713Z,99788.91
2023-04-10T10:19:48.829Z,99796.00
2023-04-10T10:24:56.557Z,99759.94
2023-04-10T10:30:02.913Z,99761.88
2023-04-10T10:35:08.586Z,99736.06
2023-04-10T10:40:17.982Z,99706.34
2023-04-10T10:45:31.465Z,99764.31
2023-04-10T10:51:08.758Z,99746.41
2023-04-10T10:56:19.241Z,99712.38
2023-04-10T11:06:51.377Z,99756.41
2023-04-10T11:11:59.248Z,99717.16
2023-04-10T11:17:01.100Z,99685.38
2023-04-10T11:22:08.080Z,99622.97
2023-04-10T11:27:10.082Z,99738.28
2023-04-10T11:32:11.873Z,99733.53
2023-04-10T11:37:23.187Z,99655.38
2023-04-10T11:42:24.771Z,99670.97
2023-04-10T11:47:26.778Z,99714.66
2023-04-10T11:52:28.497Z,99569.75
2023-04-10T11:57:35.057Z,99585.28
2023-04-10T12:02:51.190Z,99557.91
2023-04-10T12:07:52.949Z,99559.25
2023-04-10T12:12:54.557Z,99561.72
2023-04-10T12:17:56.665Z,99536.38
2023-04-10T12:23:01.420Z,99534.38
2023-04-10T12:28:03.120Z,99533.75
2023-04-10T12:33:07.557Z,99550.38
2023-04-10T12:38:09.335Z,99561.44
2023-04-10T12:43:10.917Z,99547.25
2023-04-10T12:48:12.484Z,99485.50
2023-04-10T12:53:14.188Z,99448.63
2023-04-10T12:58:18.505Z,99452.59
2023-04-10T13:03:20.618Z,99471.59
2023-04-10T13:08:23.039Z,99449.41
2023-04-10T13:13:24.642Z,99466.06
2023-04-10T13:18:26.594Z,99439.13
2023-04-10T13:23:28.223Z,99495.13
2023-04-10T13:28:29.776Z,99475.81
2023-04-10T13:33:31.428Z,99480.81
2023-04-10T13:38:34.024Z,99419.47
2023-04-10T13:43:36.611Z,99396.47
2023-04-10T13:48:41.384Z,99372.66
2023-04-10T13:53:43.074Z,99373.72
2023-04-10T13:58:46.224Z,99394.88
2023-04-10T14:03:48.031Z,99411.56
2023-04-10T14:08:49.833Z,99379.69
2023-04-10T14:13:51.465Z,99390.03
2023-04-10T14:18:54.596Z,99423.16
2023-04-10T14:23:56.296Z,99347.28
2023-04-10T14:28:57.864Z,99334.94
2023-04-10T14:33:59.526Z,99309.19
2023-04-10T14:39:01.166Z,99318.44
2023-04-10T14:44:03.116Z,99291.94
2023-04-10T14:49:04.792Z,99316.94
2023-04-10T14:54:06.446Z,99277.94
2023-04-10T14:59:08.481Z,99328.13
2023-04-10T15:05:34.536Z,99343.44
2023-04-10T15:10:36.135Z,99362.16
2023-04-10T15:15:37.757Z,99331.31
2023-04-10T15:20:39.495Z,99339.78
2023-04-10T15:25:41.202Z,99288.75
2023-04-10T15:30:45.776Z,99291.31
2023-04-10T15:35:50.397Z,99283.28
2023-04-10T15:40:52.373Z,99274.84
2023-04-10T15:45:54.052Z,99245.31
2023-04-10T15:50:55.834Z,99260.25
2023-04-10T15:55:57.686Z,99251.50
2023-04-10T16:00:59.474Z,99252.19
2023-04-10T16:06:01.074Z,99268.81
2023-04-10T16:11:02.848Z,99226.50
2023-04-10T16:16:06.195Z,99186.66
2023-04-10T16:21:16.946Z,99257.13
2023-04-10T16:26:18.834Z,99236.56
2023-04-10T16:31:20.675Z,99160.53
2023-04-10T16:36:22.357Z,99164.91
2023-04-10T16:41:24.538Z,99196.19
2023-04-10T16:46:26.337Z,99220.41
2023-04-10T16:51:28.234Z,99208.34
2023-04-10T16:56:31.998Z,99210.41
2023-04-10T17:01:39.561Z,99206.63
2023-04-10T17:06:41.256Z,99198.44
2023-04-10T17:11:43.121Z,99197.34
2023-04-10T17:16:45.841Z,99197.16
2023-04-10T17:21:47.589Z,99156.19
2023-04-10T17:26:49.845Z,99182.19
2023-04-10T17:31:51.426Z,99178.66
2023-04-10T17:36:53.150Z,99141.44
2023-04-10T17:41:54.727Z,99133.88
2023-04-10T17:46:56.732Z,99123.38
2023-04-10T17:51:58.297Z,99146.28
2023-04-10T17:56:59.993Z,99144.00
2023-04-10T18:02:01.559Z,99137.63
2023-04-10T18:07:03.172Z,99135.28
2023-04-10T18:12:04.780Z,99188.81
2023-04-10T18:17:06.380Z,99165.75
2023-04-10T18:22:07.971Z,99190.78
2023-04-10T18:27:09.538Z,99185.44
2023-04-10T18:32:11.106Z,99190.25
2023-04-10T18:37:12.672Z,99173.94
2023-04-10T18:42:14.286Z,99154.78
2023-04-10T18:47:15.923Z,99163.31
2023-04-10T18:52:17.554Z,99101.09
2023-04-10T18:57:19.164Z,99138.03
2023-04-10T19:02:21.011Z,99157.50
2023-04-10T19:07:22.862Z,99202.66
2023-04-10T19:12:24.450Z,99173.25
2023-04-10T19:17:26.030Z,99206.06
2023-04-10T19:22:27.620Z,99202.44
2023-04-10T19:27:29.410Z,99195.13
2023-04-10T19:32:31.145Z,99212.59
2023-04-10T19:37:32.910Z,99230.13
2023-04-10T19:42:35.571Z,99238.59
2023-04-10T19:47:37.509Z,99222.34
2023-04-10T19:52:39.222Z,99233.28
2023-04-10T19:57:40.952Z,99241.09
2023-04-10T20:02:42.903Z,99232.66
2023-04-10T20:07:44.771Z,99213.88
2023-04-10T20:12:46.431Z,99184.97
2023-04-10T20:17:48.215Z,99255.69
2023-04-10T20:22:49.795Z,99244.13
2023-04-10T20:27:51.450Z,99241.63
2023-04-10T20:32:53.139Z,99223.19
2023-04-10T20:37:54.870Z,99227.75
2023-04-10T20:42:56.473Z,99177.59
2023-04-10T20:47:58.239Z,99224.13
2023-04-10T20:53:00.020Z,99198.38
2023-04-10T20:58:01.735Z,99222.28
2023-04-10T21:03:03.562Z,99220.34
2023-04-10T21:08:05.408Z,99231.72
2023-04-10T21:13:07.004Z,99236.94
2023-04-10T21:18:09.120Z,99252.00
2023-04-10T21:23:11.125Z,99244.75
2023-04-10T21:28:12.816Z,99198.66
2023-04-10T21:33:14.794Z,99169.38
2023-04-10T21:38:16.540Z,99224.75
2023-04-10T21:43:18.433Z,99186.34
2023-04-10T21:48:20.851Z,99205.22
2023-04-10T21:53:22.501Z,99210.94
2023-04-10T21:58:24.231Z,99053.56
2023-04-10T22:03:27.411Z,99189.03
2023-04-10T22:08:29.184Z,99152.78
2023-04-10T22:13:31.427Z,99120.69
2023-04-10T22:18:33.783Z,99155.75
2023-04-10T22:23:35.471Z,99147.00
2023-04-10T22:28:37.066Z,99126.66
2023-04-10T22:33:38.793Z,99126.38
2023-04-10T22:38:40.454Z,99134.97
2023-04-10T22:43:42.132Z,99158.66
2023-04-10T22:48:44.513Z,99149.66
2023-04-10T22:53:48.112Z,99147.91
2023-04-10T22:58:49.734Z,99162.38
2023-04-10T23:03:53.729Z,99138.03
2023-04-10T23:08:56.067Z,99130.16
2023-04-10T23:13:57.987Z,99109.22
2023-04-10T23:18:59.685Z,99145.88
2023-04-10T23:24:01.442Z,99153.88
2023-04-10T23:29:03.299Z,99162.41
2023-04-10T23:34:05.098Z,99146.41
2023-04-10T23:39:06.706Z,99143.13
2023-04-10T23:44:08.401Z,99089.56
2023-04-10T23:49:10.055Z,99119.97
2023-04-10T23:54:13.479Z,99111.03
2023-04-10T23:59:17.031Z,99120.81
